Latest Weather Observations for Stenhouse Bay

IDS60801

Issued at 6:31 pm CDT Monday 8 February 2016 (issued every 30 minutes, with the page automatically refreshed every 10 minutes)

About weather observations | Map of weather stations | Latest weather observations for SA | Other Formats
Station Details ID: 022049 Name: STENHOUSE BAY Lat: -35.28 Lon: 136.94 Height: 42.0 m
Data from the previous 72 hours. | See also: Recent months at Stenhouse Bay
Date/Time
CDT
Temp
°C
App
Temp
°C
Dew
Point
Rel
Hum
%
Delta-T
°C
Wind Press
QNH
hPa
Press
MSL
hPa
Rain
since 9 am
mm
Dir
 
Spd
km/h
Gust
km/h
Spd
kts
Gust
kts
08/06:30pm 21.7 16.9 14.1 62 4.4 SE 32 41 17 22 1021.1 1021.0 0.0
08/06:00pm 22.2 17.6 14.6 62 4.5 ESE 32 37 17 20 1021.1 1021.0 0.0
08/05:30pm 22.9 19.2 15.0 61 4.7 ESE 28 35 15 19 1021.3 1021.2 0.0
08/05:00pm 23.1 19.2 14.4 58 5.1 SE 28 35 15 19 1021.4 1021.3 0.0
08/04:30pm 24.1 21.5 15.9 60 5.0 ESE 24 32 13 17 1021.7 1021.6 0.0
08/04:00pm 24.0 21.3 15.5 59 5.1 SE 24 32 13 17 1021.9 1021.8 0.0
08/03:30pm 23.5 20.5 14.8 58 5.2 SE 24 32 13 17 1022.3 1022.2 0.0
08/03:00pm 23.6 20.6 14.9 58 5.2 SE 24 30 13 16 1022.4 1022.3 0.0
08/02:30pm 23.4 21.3 15.2 60 4.9 SSE 20 26 11 14 1022.7 1022.6 0.0
08/02:00pm 23.8 21.6 15.0 57 5.3 SE 20 28 11 15 1022.9 1022.8 0.0
08/01:30pm 23.1 20.7 14.4 58 5.1 SE 20 28 11 15 1023.2 1023.1 0.0
08/01:00pm 22.5 19.5 13.8 58 5.1 SE 22 30 12 16 1023.5 1023.4 0.0
08/12:30pm 22.1 19.6 14.2 61 4.6 SE 20 32 11 17 1023.7 1023.6 0.0
08/12:00pm 21.8 18.6 14.2 62 4.4 SE 24 32 13 17 1023.8 1023.7 0.0
08/11:30am 20.5 17.6 13.9 66 3.8 SE 22 35 12 19 1023.9 1023.8 0.0
08/11:00am 20.4 17.1 14.1 67 3.7 SE 24 32 13 17 1024.0 1023.9 0.0
08/10:30am 20.6 16.9 13.8 65 3.9 SE 26 39 14 21 1023.9 1023.8 0.0
08/10:00am 18.5 14.1 12.9 70 3.2 SSE 28 39 15 21 1023.9 1023.8 0.0
08/09:30am 18.1 14.2 13.2 73 2.8 SE 26 35 14 19 1024.0 1023.9 0.0
08/09:00am 17.8 14.2 12.9 73 2.7 SE 24 33 13 18 1023.8 1023.7 0.0
08/08:30am 17.6 14.0 13.1 75 2.5 SE 24 35 13 19 1023.6 1023.5 0.0
08/08:00am 17.2 13.0 12.5 74 2.6 SE 26 37 14 20 1023.2 1023.1 0.0
08/07:30am 16.9 12.6 12.2 74 2.6 SE 26 37 14 20 1023.0 1022.9 0.0
08/07:00am 17.0 13.0 12.9 77 2.3 SSE 26 35 14 19 1022.9 1022.8 0.0
08/06:30am 16.6 12.0 12.2 75 2.4 SSE 28 39 15 21 1022.4 1022.3 0.0
08/06:00am 16.7 13.4 12.8 78 2.2 SE 22 33 12 18 1022.1 1022.0 0.0
08/05:30am 16.7 12.3 12.8 78 2.2 SE 28 35 15 19 1021.8 1021.7 0.0
08/05:00am 16.9 13.7 13.2 79 2.1 SSE 22 30 12 16 1021.4 1021.3 0.0
08/04:30am 16.8 13.6 13.1 79 2.1 SE 22 32 12 17 1021.4 1021.3 0.0
08/04:00am 16.9 12.9 13.0 78 2.2 SSE 26 35 14 19 1021.3 1021.2 0.0
08/03:30am 17.0 13.4 12.9 77 2.3 SE 24 35 13 19 1021.4 1021.3 0.0
08/03:00am 17.1 13.0 12.8 76 2.4 SSE 26 35 14 19 1021.5 1021.4 0.0
08/02:30am 17.3 13.3 13.0 76 2.4 SSE 26 35 14 19 1021.5 1021.4 0.0
08/02:00am 17.6 12.5 13.1 75 2.5 SSE 32 41 17 22 1021.7 1021.6 0.0
08/01:30am 17.5 13.6 13.2 76 2.4 SSE 26 35 14 19 1022.0 1021.9 0.0
08/01:00am 17.7 13.4 13.2 75 2.5 SSE 28 41 15 22 1022.0 1021.9 0.0
08/12:30am 17.9 13.4 13.8 77 2.3 SSE 30 41 16 22 1022.1 1022.0 0.0
08/12:00am 17.9 12.8 13.6 76 2.4 SSE 33 39 18 21 1022.1 1022.0 0.0
 
Date/Time
CDT
Temp
°C
App
Temp
°C
Dew
Point
Rel
Hum
%
Delta-T
°C
Wind Press
QNH
hPa
Press
MSL
hPa
Rain
since 9 am
mm
Dir
 
Spd
km/h
Gust
km/h
Spd
kts
Gust
kts
07/11:30pm 18.0 12.8 13.5 75 2.5 SSE 33 41 18 22 1022.1 1022.0 0.0
07/11:00pm 18.1 14.0 13.8 76 2.5 SSE 28 39 15 21 1022.0 1021.9 0.0
07/10:30pm 18.2 13.7 13.7 75 2.6 SSE 30 41 16 22 1021.9 1021.8 0.0
07/10:00pm 18.4 13.4 14.1 76 2.5 SSE 33 41 18 22 1021.7 1021.6 0.0
07/09:30pm 18.8 14.2 14.5 76 2.5 SSE 32 39 17 21 1021.2 1021.1 0.0
07/09:00pm 19.1 14.3 14.6 75 2.6 SSE 33 41 18 22 1020.7 1020.6 0.0
07/08:30pm 19.6 15.0 15.0 75 2.7 SSE 33 41 18 22 1020.2 1020.1 0.0
07/08:00pm 20.1 15.5 15.1 73 2.9 SSE 33 41 18 22 1019.8 1019.7 0.0
07/07:30pm 20.7 15.6 14.8 69 3.5 SSE 35 41 19 22 1019.3 1019.2 0.0
07/07:00pm 21.6 17.2 15.2 67 3.8 SSE 32 37 17 20 1018.8 1018.7 0.0
07/06:30pm 22.4 19.1 16.0 67 3.9 SSE 28 35 15 19 1018.6 1018.5 0.0
07/06:00pm 23.3 23.0 17.3 69 3.7 S 15 20 8 11 1018.6 1018.5 0.0
07/05:30pm 23.0 23.4 18.1 74 3.1 SW 13 17 7 9 1018.5 1018.4 0.0
07/05:00pm 23.4 23.8 18.1 72 3.3 SW 13 19 7 10 1018.4 1018.3 0.0
07/04:30pm 23.1 23.3 17.6 71 3.4 SW 13 17 7 9 1018.4 1018.3 0.0
07/04:00pm 23.6 23.4 17.6 69 3.7 SW 15 19 8 10 1018.6 1018.5 0.0
07/03:30pm 23.1 22.7 17.1 69 3.7 SW 15 19 8 10 1018.5 1018.4 0.0
07/03:00pm 23.0 22.2 17.0 69 3.7 SW 17 20 9 11 1018.6 1018.5 0.0
07/02:30pm 23.1 21.9 16.2 65 4.2 SW 17 22 9 12 1018.8 1018.7 0.0
07/02:00pm 22.9 21.7 16.0 65 4.2 SW 17 20 9 11 1019.0 1018.9 0.0
07/01:30pm 22.7 21.9 16.0 66 4.0 SW 15 20 8 11 1019.1 1019.0 0.0
07/01:00pm 22.6 21.7 15.9 66 4.0 SW 15 19 8 10 1019.2 1019.1 0.0
07/12:30pm 21.8 21.2 14.7 64 4.2 SSW 11 15 6 8 1019.2 1019.1 0.0
07/12:00pm 22.3 22.2 15.9 67 3.8 SSW 11 17 6 9 1019.5 1019.4 0.0
07/11:30am 21.5 20.8 15.3 68 3.7 S 13 17 7 9 1019.5 1019.4 0.0
07/11:00am 21.7 20.9 16.2 71 3.3 S 15 20 8 11 1019.4 1019.3 0.0
07/10:30am 20.9 20.4 15.9 73 3.0 SSE 13 19 7 10 1019.2 1019.1 0.0
07/10:00am 20.3 19.0 15.7 75 2.7 SSE 17 20 9 11 1019.2 1019.1 0.0
07/09:30am 19.8 18.0 15.4 76 2.6 SSE 19 24 10 13 1019.1 1019.0 0.0
07/09:00am 19.5 17.5 15.6 78 2.3 SSE 20 24 11 13 1018.8 1018.7 0.0
07/08:30am 18.8 16.4 15.3 80 2.1 SSE 22 28 12 15 1018.8 1018.7 0.0
07/08:00am 18.4 16.2 16.0 86 1.4 SSE 22 30 12 16 1018.5 1018.4 0.0
07/07:30am 18.0 16.2 16.0 88 1.2 SSE 20 26 11 14 1018.1 1018.0 0.0
07/07:00am 17.5 16.2 15.7 89 1.1 SSE 17 24 9 13 1017.8 1017.7 0.0
07/06:30am 17.4 16.4 15.6 89 1.1 SE 15 20 8 11 1017.4 1017.2 0.0
07/06:00am 17.5 15.7 15.5 88 1.2 SE 19 24 10 13 1017.1 1016.9 0.0
07/05:30am 17.6 14.7 15.2 86 1.4 SSE 24 30 13 16 1017.1 1016.9 0.0
07/05:00am 17.4 14.5 15.2 87 1.3 SSE 24 30 13 16 1017.0 1016.8 0.0
07/04:30am 17.4 14.6 15.4 88 1.2 SSE 24 30 13 16 1016.9 1016.7 0.0
07/04:00am 17.5 14.1 15.7 89 1.1 S 28 35 15 19 1016.9 1016.7 0.0
07/03:30am 17.7 15.1 16.0 90 1.0 SSE 24 30 13 16 1016.5 1016.3 0.0
07/03:00am 17.8 16.2 16.0 89 1.1 SSE 19 24 10 13 1016.1 1015.9 0.0
07/02:30am 18.0 15.8 16.0 88 1.2 SSE 22 26 12 14 1016.1 1015.9 0.0
07/02:00am 17.7 16.7 15.7 88 1.2 SSE 15 20 8 11 1016.0 1015.8 0.0
07/01:30am 17.7 15.7 15.5 87 1.3 SE 20 26 11 14 1016.1 1015.9 0.0
07/01:00am 17.7 15.7 15.5 87 1.3 SE 20 28 11 15 1016.5 1016.3 0.0
07/12:30am 18.0 15.2 15.4 85 1.5 SSE 24 35 13 19 1016.7 1016.5 0.0
07/12:00am 18.1 14.6 15.5 85 1.5 SSE 28 33 15 18 1017.0 1016.8 0.0
 
Date/Time
CDT
Temp
°C
App
Temp
°C
Dew
Point
Rel
Hum
%
Delta-T
°C
Wind Press
QNH
hPa
Press
MSL
hPa
Rain
since 9 am
mm
Dir
 
Spd
km/h
Gust
km/h
Spd
kts
Gust
kts
06/11:30pm 18.1 15.0 15.5 85 1.5 SSE 26 32 14 17 1017.1 1016.9 0.0
06/11:00pm 18.3 16.0 15.7 85 1.5 SSE 22 30 12 16 1016.9 1016.7 0.0
06/10:30pm 18.5 15.2 16.1 86 1.4 SSE 28 32 15 17 1016.8 1016.6 0.0
06/10:00pm 18.6 15.7 16.0 85 1.5 SSE 26 32 14 17 1016.5 1016.3 0.0
06/09:30pm 19.2 16.4 16.4 84 1.7 SSE 26 32 14 17 1016.3 1016.1 0.0
06/09:00pm 20.2 17.5 16.6 80 2.2 SSE 26 32 14 17 1015.9 1015.7 0.0
06/08:30pm 20.7 18.4 16.7 78 2.4 SSE 24 28 13 15 1015.5 1015.3 0.0
06/08:00pm 21.4 20.1 17.2 77 2.6 SSE 20 26 11 14 1015.3 1015.1 0.0
06/07:30pm 22.6 22.4 17.5 73 3.2 SSE 15 22 8 12 1015.1 1014.9 0.0
06/07:00pm 23.0 24.7 18.5 76 2.8 SSW 7 9 4 5 1014.8 1014.6 0.0
06/06:30pm 23.5 24.5 18.6 74 3.1 SW 11 17 6 9 1014.7 1014.5 0.0
06/06:00pm 23.6 23.7 18.3 72 3.3 WSW 15 22 8 12 1014.6 1014.4 0.0
06/05:30pm 23.4 22.7 18.3 73 3.2 SW 19 24 10 13 1014.5 1014.3 0.0
06/05:00pm 24.2 24.0 18.4 70 3.7 SW 17 22 9 12 1014.5 1014.3 0.0
06/04:30pm 24.3 24.3 18.9 72 3.4 WSW 17 22 9 12 1014.6 1014.4 0.0
06/04:00pm 24.6 24.3 18.3 68 4.0 WSW 17 22 9 12 1014.6 1014.4 0.0
06/03:30pm 24.6 25.2 17.6 65 4.4 SW 11 17 6 9 1014.8 1014.6 0.0
06/03:00pm 24.1 24.0 17.8 68 3.9 SW 15 20 8 11 1015.2 1015.0 0.0
06/02:30pm 24.4 24.7 16.9 63 4.6 SW 11 17 6 9 1015.2 1015.0 0.0
06/02:00pm 24.2 24.0 16.7 63 4.6 SW 13 19 7 10 1015.5 1015.3 0.0
06/01:30pm 23.4 23.5 16.4 64 4.3 SW 11 15 6 8 1015.6 1015.4 0.0
06/01:00pm 22.8 22.7 16.1 66 4.1 SW 11 17 6 9 1015.8 1015.6 0.0
06/12:30pm 22.9 23.4 17.4 71 3.4 SW 11 17 6 9 1016.1 1015.9 0.0
06/12:00pm 22.5 22.2 16.5 69 3.7 SW 13 17 7 9 1016.1 1015.9 0.0
06/11:30am 22.1 22.2 16.4 70 3.5 SSW 11 15 6 8 1016.1 1015.9 0.0
06/11:00am 21.8 21.9 16.5 72 3.2 SSW 11 15 6 8 1016.4 1016.2 0.0
06/10:30am 21.3 21.2 16.9 76 2.7 S 13 17 7 9 1016.5 1016.3 0.0
06/10:00am 20.6 19.3 16.8 79 2.3 S 19 22 10 12 1016.3 1016.1 0.0
06/09:30am 20.1 19.1 16.7 81 2.1 S 17 20 9 11 1016.4 1016.2 0.0
06/09:00am 19.7 18.8 16.9 84 1.7 S 17 20 9 11 1016.2 1016.0 0.0
06/08:30am 19.1 18.2 16.9 87 1.3 SSE 17 19 9 10 1015.9 1015.7 0.0
06/08:00am 18.4 17.0 16.6 89 1.1 SSE 19 22 10 12 1015.7 1015.5 0.0
06/07:30am 17.9 16.5 16.6 92 0.8 SSE 19 22 10 12 1015.5 1015.3 0.0
06/07:00am 17.4 15.8 16.1 92 0.8 SSE 19 24 10 13 1015.3 1015.1 0.0
06/06:30am 17.4 15.6 15.9 91 0.9 SSE 20 26 11 14 1015.0 1014.8 0.0
06/06:00am 17.3 15.4 15.8 91 0.9 SSE 20 24 11 13 1014.9 1014.7 0.0
06/05:30am 17.3 16.0 15.8 91 0.9 SSE 17 22 9 12 1014.9 1014.7 0.0
06/05:00am 17.1 16.1 15.6 91 0.9 SSE 15 20 8 11 1014.8 1014.6 0.0
06/04:30am 17.1 15.7 15.6 91 0.9 SSE 17 20 9 11 1014.7 1014.5 0.0
06/04:00am 17.0 15.5 15.2 89 1.0 SE 17 24 9 13 1015.0 1014.8 0.0
06/03:30am 17.1 15.2 15.1 88 1.2 SE 19 24 10 13 1015.3 1015.1 0.0
06/03:00am 17.0 14.8 15.0 88 1.2 SE 20 26 11 14 1015.5 1015.3 0.0
06/02:30am 17.1 14.5 14.9 87 1.3 SE 22 28 12 15 1015.7 1015.5 0.0
06/02:00am 17.0 14.4 14.8 87 1.3 SE 22 26 12 14 1016.1 1015.9 0.0
06/01:30am 16.9 14.6 14.7 87 1.3 SE 20 26 11 14 1016.4 1016.2 0.0
06/01:00am 17.0 14.3 14.6 86 1.4 SE 22 30 12 16 1016.7 1016.5 0.0
06/12:30am 16.9 13.8 14.4 85 1.4 SE 24 35 13 19 1016.7 1016.5 0.0
06/12:00am 16.9 13.3 14.2 84 1.5 SE 26 35 14 19 1017.2 1017.0 0.0
 
Date/Time
CDT
Temp
°C
App
Temp
°C
Dew
Point
Rel
Hum
%
Delta-T
°C
Wind Press
QNH
hPa
Press
MSL
hPa
Rain
since 9 am
mm
Dir
 
Spd
km/h
Gust
km/h
Spd
kts
Gust
kts
05/11:30pm 17.0 13.4 14.1 83 1.7 SSE 26 32 14 17 1017.4 1017.2 0.0
05/11:00pm 17.0 13.4 14.1 83 1.7 SE 26 35 14 19 1017.7 1017.6 0.0
05/10:30pm 17.2 12.8 14.1 82 1.8 SSE 30 39 16 21 1017.9 1017.8 0.0
05/10:00pm 17.1 13.4 14.0 82 1.8 SSE 26 33 14 18 1017.7 1017.6 0.0
05/09:30pm 17.4 12.3 13.7 79 2.1 SSE 33 43 18 23 1017.4 1017.2 0.0
05/09:00pm 17.8 12.8 13.5 76 2.4 SSE 32 41 17 22 1017.4 1017.2 0.0
05/08:30pm 18.2 13.6 13.5 74 2.7 SSE 30 37 16 20 1017.2 1017.0 0.0
05/08:00pm 19.1 14.1 13.5 70 3.2 SSE 32 39 17 21 1017.0 1016.8 0.0
05/07:30pm 19.7 14.4 13.2 66 3.7 SSE 33 37 18 20 1016.7 1016.5 0.0
05/07:00pm 20.5 15.4 13.2 63 4.2 SSE 32 37 17 20 1016.4 1016.2 0.0

Other Formats:

Comma delimited format used in spreadsheet applications
http://www.bom.gov.au/fwo/IDS60801/IDS60801.95806.axf

JavaScript Object Notation format (JSON) in row-major order
http://www.bom.gov.au/fwo/IDS60801/IDS60801.95806.json